Acton, MA

9:48 PM EDT on March 31, 2015 (GMT -0400)
Nashoba Valley | | Change Station
CLOSE
Current Station
Personal Weather Station
Location: Westford, MA
Elevation: 206 ft
Nearby Weather Stations

Elev 206 ft 42.54 °N, 71.44 °W | Updated 5 minutes ago

Clear
Clear
35.6 °F
Feels Like 36 °F
N
0.0
Wind Variable Wind from North
Gusts 0.0 mph

Today
High -- | Low -- °F
--% Chance of Precip.
Yesterday
High -- | Low -- °F
Precip. -- in
6:30 AM 7:10 PM
Waxing Gibbous, 90% visible
Pressure 29.79 in
Visibility 10.0 miles
Clouds Clear
Windchill 36 °F
Dew Point 26 °F
Humidity 67%
Rainfall -999.00 in
Snow Depth Not available.
UV 0 out of 12
Pollen 7.80 out of 12
Air Quality Not available.
Flu Activity Not available.
METAR KBED 010056Z AUTO 00000KT 10SM CLR 02/M07 A2975 RMK AO2 SLP088 T00221067 TSNO

More Conditions Fewer Conditions

Pressure 29.79 in
Visibility 10.0 miles
Clouds Clear
Windchill 36 °F
Dew Point 26 °F
Humidity 67%
Rainfall -999.00 in
Snow Depth Not available.
UV 0 out of 12
Pollen 7.80 out of 12
Air Quality Not available.
Flu Activity Not available.
METAR KBED 010056Z AUTO 00000KT 10SM CLR 02/M07 A2975 RMK AO2 SLP088 T00221067 TSNO

More Conditions Fewer Conditions

10-Day Weather Forecast

Almanac

Astronomy

Mar. 31, 2015 Rise Set
Actual Time
Civil Twilight
Nautical Twilight
Astronomical Twilight
Moon
Length of Visible Light
Length of Day
Tomorrow will be .
, % of the Moon is Illuminated

Today's Extremes

State Highs State Lows

Community

WunderPhotos

Upload Photos

1,809,889 photos uploaded!

WunderBlogs® & News

Nearby

Air Quality

  Air Quality AQ Index Pollutant
Not available.

Snow Depth

Station Depth Elevation

Earthquake Activity

City Distance Mag. Time & Date
Minimum magnitude displayed is 2.5.

Coastal Water Temperatures

Place Temperature

Stations

Nearby Weather Stations

Station Location Temp. Windchill Dew Point Humidity Wind Precip. Elev Updated Type